createdAt,value
2022-10-17T00:01:54.384Z,10.63
2022-10-17T00:03:57.130Z,10.88
2022-10-17T00:05:59.941Z,10.77
2022-10-17T00:08:02.655Z,11.55
2022-10-17T00:10:06.188Z,11.73
2022-10-17T00:12:08.906Z,12.93
2022-10-17T00:14:11.852Z,13.48
2022-10-17T00:16:15.287Z,13.70
2022-10-17T00:18:19.522Z,13.48
2022-10-17T00:20:22.583Z,11.60
2022-10-17T00:22:25.317Z,11.07
2022-10-17T00:24:28.111Z,10.45
2022-10-17T00:26:30.875Z,11.90
2022-10-17T00:28:34.218Z,11.52
2022-10-17T00:30:37.333Z,11.18
2022-10-17T00:32:40.562Z,10.85
2022-10-17T00:34:44.710Z,11.43
2022-10-17T00:36:47.612Z,10.27
2022-10-17T00:38:54.366Z,9.43
2022-10-17T00:40:58.453Z,15.03
2022-10-17T00:43:01.359Z,10.80
2022-10-17T00:45:19.129Z,11.63
2022-10-17T00:47:23.710Z,11.40
2022-10-17T00:49:29.438Z,11.60
2022-10-17T00:51:38.812Z,10.25
2022-10-17T00:53:42.120Z,9.95
2022-10-17T00:55:50.696Z,10.38
2022-10-17T00:57:53.720Z,11.80
2022-10-17T00:59:59.735Z,11.60
2022-10-17T01:02:06.132Z,12.80
2022-10-17T01:04:09.040Z,13.67
2022-10-17T01:06:11.906Z,13.73
2022-10-17T01:08:16.362Z,13.77
2022-10-17T01:10:20.178Z,15.43
2022-10-17T01:12:26.237Z,15.30
2022-10-17T01:14:35.103Z,15.32
2022-10-17T01:16:48.718Z,15.80
2022-10-17T01:19:03.500Z,15.90
2022-10-17T01:21:29.990Z,16.00
2022-10-17T01:23:55.447Z,15.10
2022-10-17T01:26:10.160Z,14.90
2022-10-17T01:28:27.919Z,14.10
2022-10-17T01:30:56.024Z,14.00
2022-10-17T01:33:02.069Z,13.95
2022-10-17T01:35:14.058Z,11.73
2022-10-17T01:37:21.423Z,12.75
2022-10-17T01:39:37.016Z,12.93
2022-10-17T01:41:44.575Z,12.38
2022-10-17T01:43:54.130Z,12.10
2022-10-17T01:46:02.669Z,11.48
2022-10-17T01:48:12.739Z,12.20
2022-10-17T01:50:20.781Z,10.85
2022-10-17T01:52:27.671Z,12.45
2022-10-17T01:54:35.070Z,11.15
2022-10-17T01:56:41.122Z,11.68
2022-10-17T01:58:50.033Z,10.73
2022-10-17T02:00:54.074Z,10.95
2022-10-17T02:03:01.055Z,11.15
2022-10-17T02:05:05.456Z,11.60
2022-10-17T02:07:09.247Z,11.35
2022-10-17T02:09:20.504Z,12.30
2022-10-17T02:11:25.142Z,12.57
2022-10-17T02:13:36.821Z,15.30
2022-10-17T02:15:54.325Z,11.43
2022-10-17T02:18:14.566Z,12.20
2022-10-17T02:20:23.144Z,12.53
2022-10-17T02:22:35.089Z,11.63
2022-10-17T02:24:46.418Z,12.63
2022-10-17T02:26:57.584Z,11.57
2022-10-17T02:29:07.489Z,12.03
2022-10-17T02:31:16.827Z,13.43
2022-10-17T02:33:24.935Z,12.13
2022-10-17T02:35:32.500Z,11.80
2022-10-17T02:37:36.803Z,12.50
2022-10-17T02:39:41.763Z,11.63
2022-10-17T02:41:46.475Z,12.55
2022-10-17T02:43:51.231Z,12.90
2022-10-17T02:45:54.809Z,11.30
2022-10-17T02:48:03.243Z,10.53
2022-10-17T02:50:08.556Z,12.10
2022-10-17T02:52:15.336Z,12.77
2022-10-17T02:54:22.415Z,11.37
2022-10-17T02:56:28.104Z,11.77
2022-10-17T02:58:34.373Z,11.53
2022-10-17T03:00:38.740Z,11.37
2022-10-17T03:02:43.315Z,14.93
2022-10-17T03:04:46.912Z,24.60
2022-10-17T03:06:51.043Z,12.80
2022-10-17T03:08:53.712Z,12.67
2022-10-17T03:10:56.421Z,12.73
2022-10-17T03:12:59.292Z,12.93
2022-10-17T03:15:02.147Z,13.30
2022-10-17T03:17:05.039Z,14.33
2022-10-17T03:19:07.995Z,13.93
2022-10-17T03:21:11.269Z,14.43
2022-10-17T03:23:15.624Z,15.10
2022-10-17T03:25:18.290Z,16.10
2022-10-17T03:27:20.960Z,14.05
2022-10-17T03:29:24.019Z,15.70
2022-10-17T03:31:26.696Z,14.40
2022-10-17T03:33:29.419Z,15.23
2022-10-17T03:35:32.519Z,15.27
2022-10-17T03:37:35.246Z,15.27
2022-10-17T03:39:39.284Z,16.23
2022-10-17T03:41:42.010Z,15.65
2022-10-17T03:43:44.938Z,16.15
2022-10-17T03:45:47.602Z,16.17
2022-10-17T03:47:50.511Z,15.57
2022-10-17T03:49:54.323Z,15.80
2022-10-17T03:51:57.043Z,15.67
2022-10-17T03:53:59.923Z,16.03
2022-10-17T03:56:12.621Z,15.60
2022-10-17T03:58:15.549Z,15.63
2022-10-17T04:00:18.376Z,15.53
2022-10-17T04:02:21.170Z,16.17
2022-10-17T04:04:24.119Z,15.67
2022-10-17T04:06:26.883Z,15.70
2022-10-17T04:08:30.164Z,16.13
2022-10-17T04:10:32.921Z,15.87
2022-10-17T04:12:36.988Z,16.37
2022-10-17T04:14:39.909Z,16.07
2022-10-17T04:16:43.001Z,16.10
2022-10-17T04:18:45.957Z,16.97
2022-10-17T04:20:48.652Z,17.52
2022-10-17T04:22:51.363Z,16.67
2022-10-17T04:24:54.122Z,16.07
2022-10-17T04:26:56.834Z,16.67
2022-10-17T04:29:00.838Z,16.07
2022-10-17T04:31:05.602Z,16.03
2022-10-17T04:33:08.703Z,16.60
2022-10-17T04:35:11.576Z,16.60
2022-10-17T04:37:14.356Z,15.97
2022-10-17T04:39:17.005Z,16.85
2022-10-17T04:41:20.070Z,17.33
2022-10-17T04:43:23.003Z,15.87
2022-10-17T04:45:27.239Z,17.33
2022-10-17T04:47:30.169Z,16.63
2022-10-17T04:49:33.200Z,16.57
2022-10-17T04:51:36.190Z,17.13
2022-10-17T04:53:40.386Z,14.90
2022-10-17T04:55:43.379Z,15.07
2022-10-17T04:57:46.240Z,15.27
2022-10-17T04:59:48.939Z,16.20
2022-10-17T05:01:52.983Z,16.50
2022-10-17T05:03:55.918Z,16.83
2022-10-17T05:05:58.589Z,17.67
2022-10-17T05:08:01.457Z,17.07
2022-10-17T05:10:05.140Z,17.43
2022-10-17T05:12:10.270Z,16.93
2022-10-17T05:14:13.344Z,17.13
2022-10-17T05:16:15.983Z,15.40
2022-10-17T05:18:20.243Z,15.63
2022-10-17T05:20:22.939Z,16.17
2022-10-17T05:22:25.820Z,16.10
2022-10-17T05:24:28.702Z,18.07
2022-10-17T05:26:31.448Z,17.83
2022-10-17T05:28:35.112Z,18.37
2022-10-17T05:30:38.063Z,19.77
2022-10-17T05:32:40.991Z,21.07
2022-10-17T05:34:45.167Z,21.30
2022-10-17T05:36:47.858Z,22.70
2022-10-17T05:38:51.324Z,22.75
2022-10-17T05:40:58.356Z,24.45
2022-10-17T05:43:01.071Z,25.55
2022-10-17T05:45:04.402Z,26.17
2022-10-17T05:47:07.303Z,25.10
2022-10-17T05:49:19.600Z,26.40
2022-10-17T05:51:29.757Z,24.23
2022-10-17T05:53:33.395Z,23.95
2022-10-17T05:55:36.222Z,24.20
2022-10-17T05:57:39.030Z,24.63
2022-10-17T05:59:41.829Z,25.35
2022-10-17T06:01:44.679Z,23.85
2022-10-17T06:03:47.652Z,23.63
2022-10-17T06:05:51.738Z,22.95
2022-10-17T06:07:58.238Z,22.33
2022-10-17T06:10:04.194Z,21.88
2022-10-17T06:12:07.304Z,22.23
2022-10-17T06:14:10.118Z,21.50
2022-10-17T06:16:12.948Z,21.27
2022-10-17T06:18:15.754Z,22.80
2022-10-17T06:20:18.732Z,22.67
2022-10-17T06:22:21.600Z,21.92
2022-10-17T06:24:25.811Z,22.13
2022-10-17T06:26:28.551Z,20.13
2022-10-17T06:28:31.882Z,21.25
2022-10-17T06:30:34.967Z,21.30
2022-10-17T06:32:37.780Z,20.90
2022-10-17T06:34:40.807Z,21.08
2022-10-17T06:36:43.558Z,20.60
2022-10-17T06:38:46.940Z,20.88
2022-10-17T06:40:51.348Z,22.15
2022-10-17T06:42:54.150Z,20.60
2022-10-17T06:44:56.835Z,20.77
2022-10-17T06:47:00.251Z,22.38
2022-10-17T06:49:04.482Z,24.00
2022-10-17T06:51:09.688Z,22.48
2022-10-17T06:53:12.407Z,23.58
2022-10-17T06:55:18.278Z,23.88
2022-10-17T06:57:26.267Z,23.90
2022-10-17T06:59:29.538Z,23.27
2022-10-17T07:01:34.326Z,24.48
2022-10-17T07:03:37.857Z,23.80
2022-10-17T07:05:40.799Z,24.45
2022-10-17T07:07:44.832Z,22.52
2022-10-17T07:09:49.153Z,23.33
2022-10-17T07:11:51.909Z,22.02
2022-10-17T07:13:55.949Z,22.60
2022-10-17T07:16:01.624Z,22.48
2022-10-17T07:18:05.143Z,21.43
2022-10-17T07:20:09.268Z,22.23
2022-10-17T07:22:12.236Z,21.73
2022-10-17T07:24:15.091Z,21.60
2022-10-17T07:26:19.457Z,21.67
2022-10-17T07:28:22.196Z,19.98
2022-10-17T07:30:26.743Z,19.92
2022-10-17T07:32:29.755Z,19.98
2022-10-17T07:34:32.469Z,18.75
2022-10-17T07:36:35.204Z,17.80
2022-10-17T07:38:38.331Z,17.15
2022-10-17T07:40:41.004Z,17.15
2022-10-17T07:42:43.836Z,17.27
2022-10-17T07:44:47.301Z,16.90
2022-10-17T07:46:51.440Z,16.30
2022-10-17T07:48:54.223Z,15.55
2022-10-17T07:50:57.012Z,14.52
2022-10-17T07:52:59.692Z,14.45
2022-10-17T07:55:02.664Z,14.15
2022-10-17T07:57:05.815Z,13.38
2022-10-17T07:59:09.532Z,13.25
2022-10-17T08:01:15.509Z,12.32
2022-10-17T08:03:20.426Z,12.48
2022-10-17T08:05:23.601Z,11.85
2022-10-17T08:07:29.324Z,10.93
2022-10-17T08:09:32.273Z,10.18
2022-10-17T08:11:36.390Z,9.50
2022-10-17T08:13:41.056Z,9.88
2022-10-17T08:15:44.602Z,8.40
2022-10-17T08:17:47.614Z,8.05
2022-10-17T08:19:52.007Z,8.23
2022-10-17T08:21:55.123Z,8.45
2022-10-17T08:23:58.354Z,7.95
2022-10-17T08:26:02.166Z,7.90
2022-10-17T08:28:05.319Z,7.93
2022-10-17T08:30:09.371Z,6.80
2022-10-17T08:32:12.064Z,7.43
2022-10-17T08:34:15.750Z,6.82
2022-10-17T08:36:21.280Z,6.50
2022-10-17T08:38:27.499Z,6.82
2022-10-17T08:40:33.589Z,6.85
2022-10-17T08:42:56.537Z,6.40
2022-10-17T08:45:11.532Z,6.43
2022-10-17T08:47:18.741Z,5.90
2022-10-17T08:49:35.681Z,6.13
2022-10-17T08:51:48.783Z,6.07
2022-10-17T08:53:56.891Z,6.35
2022-10-17T08:56:07.139Z,5.55
2022-10-17T08:58:15.812Z,5.90
2022-10-17T09:00:20.900Z,5.43
2022-10-17T09:02:38.262Z,5.65
2022-10-17T09:04:54.813Z,5.32
2022-10-17T09:07:07.027Z,5.72
2022-10-17T09:09:22.412Z,5.20
2022-10-17T09:11:49.674Z,5.70
2022-10-17T09:14:03.099Z,5.32
2022-10-17T09:16:25.984Z,5.82
2022-10-17T09:18:32.641Z,5.88
2022-10-17T09:20:39.333Z,5.55
2022-10-17T09:22:48.678Z,5.07
2022-10-17T09:24:55.656Z,5.13
2022-10-17T09:26:58.566Z,5.40
2022-10-17T09:29:02.317Z,5.05
2022-10-17T09:31:07.047Z,5.57
2022-10-17T09:33:23.267Z,5.10
2022-10-17T09:35:36.512Z,5.05
2022-10-17T09:37:39.278Z,5.63
2022-10-17T09:39:43.795Z,5.80
2022-10-17T09:41:50.780Z,5.78
2022-10-17T09:43:56.824Z,5.10
2022-10-17T09:46:06.402Z,5.78
2022-10-17T09:48:17.203Z,5.38
2022-10-17T09:50:25.872Z,5.43
2022-10-17T09:52:31.670Z,4.68
2022-10-17T09:54:44.839Z,5.13
2022-10-17T09:57:11.581Z,5.15
2022-10-17T09:59:14.576Z,5.07
2022-10-17T10:01:23.984Z,5.40
2022-10-17T10:03:28.055Z,5.07
2022-10-17T10:05:30.735Z,5.50
2022-10-17T10:07:36.384Z,6.22
2022-10-17T10:09:40.349Z,5.28
2022-10-17T10:11:49.933Z,5.20
2022-10-17T10:13:53.078Z,4.78
2022-10-17T10:16:15.823Z,4.88
2022-10-17T10:20:39.255Z,4.60
2022-10-17T10:22:42.131Z,4.30
2022-10-17T10:24:45.241Z,4.90
2022-10-17T10:26:52.806Z,4.88
2022-10-17T10:28:59.762Z,5.20
2022-10-17T10:31:07.452Z,4.72
2022-10-17T10:33:12.633Z,4.85
2022-10-17T10:35:22.681Z,4.75
2022-10-17T10:37:28.365Z,4.15
2022-10-17T10:39:49.782Z,4.30
2022-10-17T10:41:54.118Z,4.63
2022-10-17T10:43:57.254Z,3.70
2022-10-17T10:46:00.848Z,4.68
2022-10-17T10:48:07.149Z,4.65
2022-10-17T10:50:21.030Z,4.10
2022-10-17T10:52:33.181Z,4.07
2022-10-17T10:54:40.943Z,4.22
2022-10-17T10:56:49.914Z,3.80
2022-10-17T10:59:01.181Z,4.40
2022-10-17T11:01:06.878Z,4.57
2022-10-17T11:03:15.598Z,4.20
2022-10-17T11:05:23.799Z,4.30
2022-10-17T11:07:31.385Z,4.38
2022-10-17T11:09:46.218Z,3.90
2022-10-17T11:11:54.503Z,4.07
2022-10-17T11:14:04.361Z,3.47
2022-10-17T11:16:19.428Z,3.92
2022-10-17T11:18:27.101Z,3.83
2022-10-17T11:20:45.871Z,4.03
2022-10-17T11:22:50.046Z,4.15
2022-10-17T11:24:59.461Z,3.70
2022-10-17T11:27:05.950Z,3.60
2022-10-17T11:29:13.832Z,3.28
2022-10-17T11:31:18.332Z,3.40
2022-10-17T11:33:29.967Z,3.83
2022-10-17T11:35:39.284Z,3.92
2022-10-17T11:37:49.008Z,3.63
2022-10-17T11:39:54.997Z,3.10
2022-10-17T11:42:04.258Z,3.67
2022-10-17T11:44:18.052Z,3.70
2022-10-17T11:46:24.366Z,3.25
2022-10-17T11:48:32.855Z,3.97
2022-10-17T11:53:05.112Z,3.20
2022-10-17T11:55:15.761Z,3.67
2022-10-17T11:57:37.248Z,3.38
2022-10-17T11:59:58.334Z,3.70
2022-10-17T12:02:09.519Z,3.40
2022-10-17T12:04:29.776Z,3.35
2022-10-17T12:06:44.225Z,3.40
2022-10-17T12:08:53.314Z,3.97
2022-10-17T12:11:02.068Z,3.67
2022-10-17T12:13:42.417Z,3.53
2022-10-17T12:15:46.790Z,3.38
2022-10-17T12:17:56.227Z,3.30
2022-10-17T12:20:25.201Z,3.03
2022-10-17T12:22:28.284Z,3.38
2022-10-17T12:24:40.969Z,3.33
2022-10-17T12:26:43.752Z,2.97
2022-10-17T12:28:48.280Z,3.50
2022-10-17T12:30:59.622Z,3.20
2022-10-17T12:33:08.020Z,3.30
2022-10-17T12:35:21.983Z,3.40
2022-10-17T12:38:02.960Z,3.10
2022-10-17T12:40:49.003Z,3.28
2022-10-17T12:42:52.436Z,3.22
2022-10-17T12:44:55.315Z,3.30
2022-10-17T12:47:19.826Z,3.08
2022-10-17T12:49:41.258Z,3.80
2022-10-17T12:52:16.515Z,3.30
2022-10-17T12:54:19.494Z,2.90
2022-10-17T12:56:32.115Z,2.88
2022-10-17T12:58:36.462Z,3.17
2022-10-17T13:00:59.602Z,3.35
2022-10-17T13:03:15.403Z,2.72
2022-10-17T13:05:27.675Z,3.10
2022-10-17T13:07:30.718Z,3.28
2022-10-17T13:09:36.915Z,3.00
2022-10-17T13:11:40.803Z,3.00
2022-10-17T13:13:46.049Z,3.30
2022-10-17T13:15:49.664Z,3.40
2022-10-17T13:17:59.520Z,2.90
2022-10-17T13:20:02.674Z,2.63
2022-10-17T13:22:17.408Z,2.85
2022-10-17T13:24:25.103Z,2.70
2022-10-17T13:26:29.374Z,3.13
2022-10-17T13:28:33.881Z,2.78
2022-10-17T13:30:40.082Z,3.30
2022-10-17T13:32:45.012Z,3.00
2022-10-17T13:34:47.688Z,3.08
2022-10-17T13:36:53.497Z,3.10
2022-10-17T13:38:59.738Z,3.25
2022-10-17T13:41:33.765Z,3.20
2022-10-17T13:43:29.075Z,2.90
2022-10-17T13:45:34.552Z,3.30
2022-10-17T13:47:40.015Z,2.95
2022-10-17T13:49:45.227Z,3.05
2022-10-17T13:51:51.220Z,3.22
2022-10-17T13:53:54.840Z,3.72
2022-10-17T13:56:27.993Z,3.30
2022-10-17T13:58:26.037Z,3.15
2022-10-17T14:00:30.132Z,3.03
2022-10-17T14:02:43.419Z,3.33
2022-10-17T14:07:24.457Z,3.15
2022-10-17T14:09:37.142Z,3.67
2022-10-17T14:11:45.357Z,2.92
2022-10-17T14:13:53.125Z,3.10
2022-10-17T14:15:59.927Z,3.85
2022-10-17T14:18:07.957Z,3.33
2022-10-17T14:21:07.831Z,3.42
2022-10-17T14:22:50.460Z,3.15
2022-10-17T14:25:02.214Z,3.13
2022-10-17T14:27:28.594Z,3.40
2022-10-17T14:29:35.451Z,2.88
2022-10-17T14:31:40.080Z,3.10
2022-10-17T14:33:49.775Z,2.95
2022-10-17T14:35:57.534Z,3.10
2022-10-17T14:38:03.265Z,3.30
2022-10-17T14:40:08.589Z,3.50
2022-10-17T14:42:20.629Z,3.10
2022-10-17T14:44:27.806Z,3.10
2022-10-17T14:46:31.889Z,3.20
2022-10-17T14:48:35.174Z,2.72
2022-10-17T14:50:38.564Z,3.20
2022-10-17T14:52:43.141Z,3.40
2022-10-17T14:54:47.460Z,2.70
2022-10-17T14:56:53.331Z,3.03
2022-10-17T14:58:57.866Z,3.45
2022-10-17T15:01:03.747Z,3.03
2022-10-17T15:03:07.222Z,3.30
2022-10-17T15:05:13.437Z,2.78
2022-10-17T15:07:18.073Z,2.80
2022-10-17T15:09:22.242Z,3.08
2022-10-17T15:11:25.747Z,2.83
2022-10-17T15:13:31.255Z,2.92
2022-10-17T15:15:39.446Z,3.20
2022-10-17T15:19:46.111Z,3.33
2022-10-17T15:21:49.323Z,3.72
2022-10-17T15:23:53.371Z,3.22
2022-10-17T15:25:56.587Z,3.13
2022-10-17T15:28:02.027Z,3.28
2022-10-17T15:30:05.662Z,3.50
2022-10-17T15:32:10.084Z,3.33
2022-10-17T15:34:12.846Z,3.30
2022-10-17T15:36:21.962Z,3.47
2022-10-17T15:38:24.959Z,3.03
2022-10-17T15:40:30.221Z,3.75
2022-10-17T15:42:33.377Z,3.40
2022-10-17T15:44:37.159Z,3.20
2022-10-17T15:46:42.034Z,3.20
2022-10-17T15:48:46.351Z,3.10
2022-10-17T15:50:49.260Z,3.38
2022-10-17T15:52:52.292Z,3.30
2022-10-17T15:54:57.297Z,3.83
2022-10-17T15:57:02.517Z,3.28
2022-10-17T15:59:08.001Z,3.45
2022-10-17T16:01:20.839Z,3.70
2022-10-17T16:03:23.671Z,3.72
2022-10-17T16:05:29.096Z,3.28
2022-10-17T16:07:32.144Z,3.42
2022-10-17T16:09:37.193Z,4.00
2022-10-17T16:11:42.177Z,3.80
2022-10-17T16:13:50.701Z,3.30
2022-10-17T16:15:53.813Z,3.70
2022-10-17T16:18:01.582Z,3.35
2022-10-17T16:20:08.103Z,3.22
2022-10-17T16:22:20.669Z,3.97
2022-10-17T16:24:23.522Z,3.50
2022-10-17T16:26:26.356Z,3.13
2022-10-17T16:28:29.204Z,3.63
2022-10-17T16:30:33.095Z,4.25
2022-10-17T16:32:36.099Z,8.02
2022-10-17T16:34:38.926Z,6.38
2022-10-17T16:36:42.395Z,5.90
2022-10-17T16:38:47.112Z,4.40
2022-10-17T16:40:50.112Z,3.65
2022-10-17T16:42:53.225Z,3.45
2022-10-17T16:44:55.983Z,3.70
2022-10-17T16:46:58.860Z,3.75
2022-10-17T16:49:01.604Z,3.53
2022-10-17T16:51:04.485Z,3.67
2022-10-17T16:53:07.309Z,3.55
2022-10-17T16:55:12.312Z,3.78
2022-10-17T16:57:15.240Z,3.70
2022-10-17T16:59:18.028Z,3.33
2022-10-17T17:01:23.460Z,3.67
2022-10-17T17:03:26.323Z,3.58
2022-10-17T17:05:29.114Z,3.50
2022-10-17T17:07:33.332Z,3.53
2022-10-17T17:09:36.802Z,3.60
2022-10-17T17:11:40.948Z,4.00
2022-10-17T17:13:43.955Z,4.00
2022-10-17T17:15:46.755Z,4.70
2022-10-17T17:17:52.469Z,3.95
2022-10-17T17:19:57.613Z,3.83
2022-10-17T17:22:00.347Z,3.63
2022-10-17T17:24:04.356Z,4.10
2022-10-17T17:26:09.931Z,4.10
2022-10-17T17:28:14.098Z,4.30
2022-10-17T17:30:17.321Z,4.70
2022-10-17T17:32:20.032Z,4.30
2022-10-17T17:34:22.734Z,4.47
2022-10-17T17:36:28.587Z,4.28
2022-10-17T17:38:33.218Z,4.82
2022-10-17T17:40:36.173Z,5.30
2022-10-17T17:42:38.890Z,4.65
2022-10-17T17:44:43.001Z,4.80
2022-10-17T17:46:46.215Z,5.10
2022-10-17T17:48:50.190Z,4.68
2022-10-17T17:50:53.144Z,4.28
2022-10-17T17:52:55.893Z,4.78
2022-10-17T17:54:58.629Z,5.05
2022-10-17T17:57:01.544Z,4.90
2022-10-17T17:59:04.839Z,4.88
2022-10-17T18:01:14.984Z,5.40
2022-10-17T18:03:18.024Z,5.78
2022-10-17T18:05:21.512Z,5.32
2022-10-17T18:07:24.483Z,5.80
2022-10-17T18:09:27.375Z,5.40
2022-10-17T18:11:31.067Z,5.53
2022-10-17T18:13:33.832Z,5.40
2022-10-17T18:15:38.013Z,5.20
2022-10-17T18:17:42.865Z,5.65
2022-10-17T18:19:45.771Z,5.95
2022-10-17T18:21:48.696Z,6.03
2022-10-17T18:23:52.745Z,6.10
2022-10-17T18:25:55.835Z,7.00
2022-10-17T18:27:58.596Z,6.63
2022-10-17T18:30:01.340Z,6.55
2022-10-17T18:32:04.031Z,6.90
2022-10-17T18:34:08.394Z,6.50
2022-10-17T18:36:14.119Z,7.25
2022-10-17T18:38:16.799Z,6.00
2022-10-17T18:40:19.632Z,6.35
2022-10-17T18:42:22.458Z,6.40
2022-10-17T18:44:25.584Z,6.95
2022-10-17T18:46:31.099Z,5.50
2022-10-17T18:48:34.831Z,5.85
2022-10-17T18:50:40.104Z,6.53
2022-10-17T18:52:44.372Z,5.97
2022-10-17T18:54:47.135Z,6.20
2022-10-17T18:56:51.395Z,6.50
2022-10-17T18:58:54.148Z,5.80
2022-10-17T19:01:03.312Z,5.80
2022-10-17T19:03:07.739Z,6.70
2022-10-17T19:05:11.065Z,5.45
2022-10-17T19:07:16.906Z,5.80
2022-10-17T19:09:19.682Z,5.55
2022-10-17T19:11:24.474Z,5.75
2022-10-17T19:13:27.203Z,6.03
2022-10-17T19:15:30.390Z,6.03
2022-10-17T19:17:33.282Z,5.68
2022-10-17T19:19:36.212Z,6.43
2022-10-17T19:21:39.392Z,6.15
2022-10-17T19:23:43.556Z,6.07
2022-10-17T19:25:46.222Z,6.30
2022-10-17T19:27:48.977Z,6.20
2022-10-17T19:29:51.739Z,6.03
2022-10-17T19:33:58.904Z,6.47
2022-10-17T19:36:04.312Z,6.18
2022-10-17T19:38:06.987Z,6.10
2022-10-17T19:40:12.839Z,6.28
2022-10-17T19:42:15.880Z,6.25
2022-10-17T19:44:18.874Z,6.45
2022-10-17T19:46:23.603Z,6.15
2022-10-17T19:48:26.787Z,6.68
2022-10-17T19:50:29.597Z,6.35
2022-10-17T19:52:33.677Z,6.03
2022-10-17T19:54:38.813Z,6.65
2022-10-17T19:56:43.347Z,6.43
2022-10-17T19:58:46.422Z,6.10
2022-10-17T20:00:50.470Z,6.15
2022-10-17T20:02:53.199Z,6.47
2022-10-17T20:05:13.805Z,6.25
2022-10-17T20:07:20.135Z,6.25
2022-10-17T20:09:24.954Z,6.13
2022-10-17T20:11:29.835Z,5.85
2022-10-17T20:13:36.465Z,6.40
2022-10-17T20:15:40.025Z,6.95
2022-10-17T20:17:42.764Z,6.15
2022-10-17T20:19:47.082Z,6.63
2022-10-17T20:21:49.950Z,6.30
2022-10-17T20:23:52.886Z,5.93
2022-10-17T20:26:13.589Z,5.90
2022-10-17T20:28:23.360Z,6.10
2022-10-17T20:30:27.681Z,6.15
2022-10-17T20:32:32.335Z,5.97
2022-10-17T20:34:36.648Z,6.28
2022-10-17T20:36:40.106Z,6.13
2022-10-17T20:38:43.104Z,6.00
2022-10-17T20:40:46.123Z,6.30
2022-10-17T20:42:49.402Z,6.60
2022-10-17T20:44:52.437Z,7.00
2022-10-17T20:47:02.164Z,7.03
2022-10-17T20:49:06.829Z,7.68
2022-10-17T20:51:10.441Z,7.63
2022-10-17T20:55:37.141Z,7.72
2022-10-17T20:57:40.027Z,7.70
2022-10-17T20:59:42.707Z,7.32
2022-10-17T21:01:46.837Z,7.20
2022-10-17T21:03:51.179Z,6.68
2022-10-17T21:05:53.866Z,6.32
2022-10-17T21:07:56.653Z,6.20
2022-10-17T21:10:12.145Z,6.82
2022-10-17T21:12:31.015Z,6.30
2022-10-17T21:14:39.625Z,6.85
2022-10-17T21:16:42.762Z,6.95
2022-10-17T21:18:46.201Z,6.95
2022-10-17T21:20:50.660Z,6.25
2022-10-17T21:22:53.550Z,6.60
2022-10-17T21:24:56.450Z,6.82
2022-10-17T21:27:00.394Z,6.88
2022-10-17T21:29:05.826Z,6.78
2022-10-17T21:31:11.071Z,6.20
2022-10-17T21:33:13.889Z,6.72
2022-10-17T21:35:16.958Z,6.38
2022-10-17T21:37:21.070Z,6.82
2022-10-17T21:39:24.721Z,6.00
2022-10-17T21:41:29.284Z,6.15
2022-10-17T21:43:32.523Z,6.47
2022-10-17T21:45:37.076Z,6.35
2022-10-17T21:47:41.760Z,6.53
2022-10-17T21:49:48.348Z,6.63
2022-10-17T21:51:52.436Z,7.15
2022-10-17T21:53:58.242Z,5.90
2022-10-17T21:56:01.668Z,6.35
2022-10-17T21:58:04.706Z,6.05
2022-10-17T22:00:08.941Z,6.53
2022-10-17T22:02:11.605Z,6.78
2022-10-17T22:04:16.311Z,6.32
2022-10-17T22:08:46.612Z,5.70
2022-10-17T22:10:50.767Z,5.85
2022-10-17T22:12:53.694Z,6.10
2022-10-17T22:14:56.678Z,6.70
2022-10-17T22:16:59.626Z,5.57
2022-10-17T22:19:06.629Z,5.95
2022-10-17T22:21:14.219Z,6.45
2022-10-17T22:23:17.007Z,6.53
2022-10-17T22:25:19.825Z,5.60
2022-10-17T22:27:24.214Z,6.03
2022-10-17T22:29:27.232Z,6.20
2022-10-17T22:31:29.926Z,5.95
2022-10-17T22:33:33.521Z,6.22
2022-10-17T22:35:36.226Z,6.05
2022-10-17T22:37:39.017Z,6.38
2022-10-17T22:39:41.802Z,5.93
2022-10-17T22:41:45.086Z,5.47
2022-10-17T22:43:49.960Z,5.95
2022-10-17T22:45:53.536Z,5.45
2022-10-17T22:47:56.312Z,5.68
2022-10-17T22:49:59.086Z,5.60
2022-10-17T22:52:01.862Z,6.10
2022-10-17T22:54:05.039Z,6.00
2022-10-17T22:56:10.960Z,6.00
2022-10-17T22:58:13.708Z,6.20
2022-10-17T23:00:19.409Z,6.10
2022-10-17T23:02:22.599Z,5.43
2022-10-17T23:04:25.587Z,5.30
2022-10-17T23:06:28.298Z,5.22
2022-10-17T23:08:31.079Z,5.25
2022-10-17T23:10:34.869Z,5.22
2022-10-17T23:12:37.639Z,5.85
2022-10-17T23:14:43.118Z,5.30
2022-10-17T23:16:47.147Z,6.30
2022-10-17T23:18:49.868Z,5.85
2022-10-17T23:20:52.913Z,5.50
2022-10-17T23:22:55.690Z,5.57
2022-10-17T23:24:58.387Z,5.22
2022-10-17T23:27:01.888Z,5.47
2022-10-17T23:29:04.676Z,5.32
2022-10-17T23:31:15.251Z,5.47
2022-10-17T23:33:19.263Z,5.63
2022-10-17T23:35:22.154Z,5.68
2022-10-17T23:37:24.992Z,5.65
2022-10-17T23:39:28.059Z,4.93
2022-10-17T23:41:30.801Z,5.43
2022-10-17T23:43:34.289Z,5.35
2022-10-17T23:45:37.460Z,5.68
2022-10-17T23:47:40.402Z,5.40
2022-10-17T23:49:44.482Z,5.55
2022-10-17T23:51:47.215Z,5.30
2022-10-17T23:53:49.928Z,5.88
2022-10-17T23:55:53.429Z,6.07
2022-10-17T23:57:56.159Z,5.88
2022-10-17T23:59:58.887Z,5.60
